Toledo, Argentina
Current Conditions -  °F | °C
As of 2:00 AM on Monday 22 Dec 2014 (Local Time) from SACO Reporting Station
Clear Clear  
Wind Chill: 50°   Ceiling: Unl
Heat Index: 50°   Visibility: 6mi
Dew Point: 39°   Wind: 7mph
Humidity: 66%   Direction: 270°W
Pressure: 30.12"   Gusts: NA
Location:  31.57°S, 64.02°W
Report Text: SACO 220500Z 27006KT CAVOK 10/04 Q1020
Loading
Personal Weather Stations






























Interactive Weather Map New forecast layout! Learn more

10-Day Weather Forecast

Advertisements
Track Severe Weather on mobile